Time;durP1;ratioP1;P1;durP2;ratioP2;P2;SDS_P1;SDS_P2;PMS_P1;PMS_P2;Temp;Humidity;BMP_temperature;BMP_pressure;BME280_temperature;BME280_humidity;BME280_pressure;Samples;Min_cycle;Max_cycle;Signal;HPM_P1;HPM_P2
2022/02/03 00:02:12;;;;;;;20.27;11.95;;;;;;;1.08;78.61;101188.70;1720365;83;20975;-81
2022/02/03 00:04:20;;;;;;;23.07;12.88;;;;;;;1.10;78.52;101185.81;1717637;82;21038;-81
2022/02/03 00:06:53;;;;;;;22.32;12.10;;;;;;;1.12;78.48;101187.22;1720944;82;21496;-81
2022/02/03 00:23:35;;;;;;;16.50;8.58;;;;;;;1.15;78.47;101198.71;1720961;83;21738;-81
2022/02/03 00:25:45;;;;;;;17.02;9.05;;;;;;;1.12;78.32;101198.48;1703263;83;20976;-82
2022/02/03 00:28:19;;;;;;;18.12;9.40;;;;;;;1.08;78.32;101197.77;1701900;82;21130;-82
2022/02/03 00:33:22;;;;;;;15.15;8.80;;;;;;;1.15;78.47;101212.08;1727834;82;21011;-81
2022/02/03 00:36:11;;;;;;;14.07;8.05;;;;;;;1.15;78.39;101211.67;1712715;82;21893;-81
2022/02/03 00:49:24;;;;;;;17.92;8.88;;;;;;;1.33;78.44;101213.37;1704789;83;21745;-81
2022/02/03 00:51:53;;;;;;;19.70;9.48;;;;;;;1.36;78.30;101226.53;1713117;83;20968;-81
2022/02/03 00:54:21;;;;;;;16.42;9.28;;;;;;;1.36;78.22;101229.53;1713229;83;21481;-81
2022/02/03 00:57:01;;;;;;;17.62;9.23;;;;;;;1.35;78.24;101224.75;1713302;82;21195;-82
2022/02/03 00:59:41;;;;;;;17.85;8.48;;;;;;;1.36;78.28;101230.42;1713363;82;21063;-82
2022/02/03 01:02:12;;;;;;;18.98;9.50;;;;;;;1.38;78.23;101232.23;1713408;83;21718;-81
2022/02/03 01:04:41;;;;;;;15.75;9.28;;;;;;;1.39;78.23;101234.02;1712199;82;21031;-81
2022/02/03 01:07:15;;;;;;;12.93;8.35;;;;;;;1.36;78.18;101232.12;1713364;82;20980;-81
2022/02/03 01:09:50;;;;;;;14.25;8.40;;;;;;;1.36;78.20;101237.31;1713237;82;21549;-81
2022/02/03 01:12:25;;;;;;;15.48;8.33;;;;;;;1.36;78.24;101243.39;1712801;82;20977;-81
2022/02/03 01:14:56;;;;;;;17.37;8.88;;;;;;;1.40;78.29;101252.69;1712437;82;21740;-81
2022/02/03 01:44:48;;;;;;;12.03;6.65;;;;;;;1.40;78.41;101240.61;1713326;82;21051;-81
2022/02/03 01:47:25;;;;;;;12.63;6.90;;;;;;;1.39;78.47;101238.83;1713830;82;21015;-81
2022/02/03 01:51:39;;;;;;;13.40;7.20;;;;;;;1.39;78.48;101236.61;1712266;82;21011;-81
2022/02/03 01:52:10;;;;;;;14.15;7.25;;;;;;;1.39;78.48;101233.64;1711811;83;21481;-81
2022/02/03 01:54:37;;;;;;;13.60;7.17;;;;;;;1.40;78.40;101233.23;1713293;82;21813;-81
2022/02/03 01:57:13;;;;;;;11.70;6.50;;;;;;;1.36;78.35;101226.53;1713272;83;21522;-81
2022/02/03 01:59:40;;;;;;;11.50;6.80;;;;;;;1.36;78.39;101229.53;1713324;82;21616;-82
2022/02/03 02:02:10;;;;;;;11.38;7.03;;;;;;;1.36;78.39;101229.13;1713358;83;21112;-81
2022/02/03 02:05:02;;;;;;;14.20;7.50;;;;;;;1.39;78.41;101231.42;1713408;82;21023;-82
2022/02/03 02:07:55;;;;;;;12.37;6.70;;;;;;;1.38;78.35;101233.13;1713585;82;21794;-82
2022/02/03 02:11:14;;;;;;;13.45;6.95;;;;;;;1.37;78.39;101231.34;1713240;82;20979;-82
2022/02/03 02:19:09;;;;;;;12.73;6.85;;;;;;;1.41;78.46;101235.02;1713331;83;20992;-81
2022/02/03 02:38:29;;;;;;;8.75;6.05;;;;;;;1.42;78.40;101248.51;1711000;83;21020;-81
2022/02/03 02:44:05;;;;;;;10.05;6.30;;;;;;;1.47;78.54;101246.73;1711264;82;21059;-80
2022/02/03 02:46:53;;;;;;;8.70;5.55;;;;;;;1.49;78.44;101239.95;1711024;82;21059;-80
2022/02/03 02:49:50;;;;;;;9.50;6.12;;;;;;;1.53;78.45;101250.16;1711059;83;21747;-81
2022/02/03 02:52:24;;;;;;;9.70;6.12;;;;;;;1.53;78.42;101251.05;1710839;83;20996;-81
2022/02/03 02:58:04;;;;;;;12.88;6.87;;;;;;;1.55;78.38;101258.53;1711080;82;27052;-82
2022/02/03 03:30:38;;;;;;;7.50;4.72;;;;;;;1.53;78.01;101274.80;1727465;82;21837;-82
2022/02/03 03:36:07;;;;;;;12.13;6.60;;;;;;;1.57;77.92;101278.52;1723184;82;21101;-81
2022/02/03 03:38:33;;;;;;;11.78;7.08;;;;;;;1.57;77.82;101280.70;1722555;81;20982;-81
2022/02/03 03:41:00;;;;;;;14.87;7.70;;;;;;;1.57;77.81;101267.73;1716959;82;20992;-81
2022/02/03 03:43:46;;;;;;;17.35;9.30;;;;;;;1.57;77.81;101272.02;1715442;83;22506;-81
2022/02/03 03:46:26;;;;;;;20.08;10.50;;;;;;;1.55;77.71;101266.31;1714834;83;21098;-80
2022/02/03 03:49:10;;;;;;;20.45;11.38;;;;;;;1.54;77.63;101271.02;1715367;83;21011;-81
2022/02/03 03:51:48;;;;;;;17.35;10.48;;;;;;;1.53;77.58;101263.13;1678573;85;21615;-80
2022/02/03 03:54:32;;;;;;;12.78;7.20;;;;;;;1.53;77.59;101269.20;1678526;85;21451;-80
2022/02/03 03:56:57;;;;;;;16.67;8.15;;;;;;;1.55;77.57;101265.42;1670138;85;22598;-81
2022/02/03 03:59:45;;;;;;;11.20;5.70;;;;;;;1.52;77.47;101258.34;1683283;84;21504;-81
2022/02/03 04:42:24;;;;;;;8.98;4.55;;;;;;;0.61;77.34;101267.84;1704139;83;21019;-81
2022/02/03 04:45:38;;;;;;;10.32;5.62;;;;;;;0.64;77.41;101271.96;1674227;84;21117;-82
2022/02/03 05:13:02;;;;;;;15.30;7.47;;;;;;;1.08;77.50;101274.25;1539314;90;21536;-83
2022/02/03 05:22:22;;;;;;;21.90;15.20;;;;;;;1.13;77.45;101287.56;1516589;94;21145;-86
2022/02/03 05:34:55;;;;;;;97.80;47.48;;;;;;;1.23;77.61;101282.62;1544754;91;21529;-86
2022/02/03 05:44:05;;;;;;;20.60;13.88;;;;;;;1.32;77.55;101281.58;1573164;90;21167;-86
2022/02/03 05:48:50;;;;;;;10.80;8.38;;;;;;;1.38;77.59;101277.63;1609078;87;21080;-86
2022/02/03 06:06:01;;;;;;;8.48;6.12;;;;;;;1.26;77.33;101274.67;1617024;87;21003;-84
2022/02/03 06:08:30;;;;;;;7.75;4.72;;;;;;;1.24;77.32;101275.34;1634223;85;21838;-84
2022/02/03 06:24:29;;;;;;;5.15;3.05;;;;;;;1.32;77.68;101304.03;1633649;87;21003;-84
2022/02/03 06:29:34;;;;;;;6.42;3.80;;;;;;;1.45;78.18;101294.13;1651361;86;21088;-90
2022/02/03 06:32:00;;;;;;;8.35;4.35;;;;;;;1.51;77.72;101289.36;1644136;86;21036;-88
2022/02/03 06:34:26;;;;;;;6.60;4.10;;;;;;;1.48;77.53;101289.13;1664158;86;21791;-91
2022/02/03 06:36:55;;;;;;;7.50;4.12;;;;;;;1.48;77.49;101295.63;1663752;86;21004;-92
2022/02/03 06:39:30;;;;;;;9.45;5.00;;;;;;;1.45;77.41;101298.91;1664362;86;21012;-92
2022/02/03 06:42:01;;;;;;;7.58;4.42;;;;;;;1.41;77.31;101296.91;1664158;86;21169;-92
2022/02/03 06:44:35;;;;;;;6.95;3.95;;;;;;;1.35;77.37;101293.48;1664273;86;21017;-92
2022/02/03 06:47:06;;;;;;;8.98;4.33;;;;;;;1.36;77.42;101300.45;1649720;85;21004;-92
2022/02/03 06:49:44;;;;;;;8.45;3.65;;;;;;;1.32;77.38;101303.63;1663401;85;21121;-92
2022/02/03 06:52:14;;;;;;;5.03;3.35;;;;;;;1.31;77.47;101297.03;1648398;86;21016;-92
2022/02/03 06:54:55;;;;;;;7.80;3.47;;;;;;;1.30;77.50;101299.14;1648987;85;21020;-92
2022/02/03 06:57:15;;;;;;;7.10;3.75;;;;;;;1.29;77.56;101301.20;1662030;86;21032;-92
2022/02/03 06:59:48;;;;;;;7.85;4.62;;;;;;;1.28;77.57;101309.80;1628680;87;21064;-92
2022/02/03 07:02:07;;;;;;;9.98;3.70;;;;;;;1.27;77.60;101311.87;1662739;85;21073;-92
2022/02/03 07:04:41;;;;;;;12.73;3.87;;;;;;;1.26;77.68;101308.76;1664127;86;21459;-92
2022/02/03 07:07:02;;;;;;;7.58;3.90;;;;;;;1.28;77.75;101308.50;1663165;85;21459;-92
2022/02/03 07:09:30;;;;;;;7.65;4.17;;;;;;;1.29;77.79;101312.47;1664171;86;21522;-91
2022/02/03 07:12:02;;;;;;;7.30;5.17;;;;;;;1.33;77.90;101308.04;1664177;86;22581;-90
2022/02/03 07:14:30;;;;;;;11.48;4.37;;;;;;;1.40;77.90;101300.68;1650037;85;21029;-92
2022/02/03 07:17:02;;;;;;;10.18;5.08;;;;;;;1.43;77.93;101304.80;1664122;85;21459;-92
2022/02/03 07:19:26;;;;;;;8.50;5.17;;;;;;;1.46;77.90;101304.59;1663792;85;20981;-92
2022/02/03 07:21:53;;;;;;;8.15;5.12;;;;;;;1.48;77.94;101304.33;1664519;86;21690;-92
2022/02/03 07:24:22;;;;;;;8.50;5.00;;;;;;;1.54;77.98;101300.86;1644137;86;21047;-92
2022/02/03 07:26:49;;;;;;;10.85;6.17;;;;;;;1.57;77.98;101298.86;1664115;86;21466;-92
2022/02/03 07:29:17;;;;;;;12.00;6.42;;;;;;;1.61;77.98;101294.79;1663809;86;21498;-91
2022/02/03 07:31:44;;;;;;;15.88;6.33;;;;;;;1.64;78.00;101288.53;1686461;84;20989;-92
2022/02/03 07:34:14;;;;;;;16.77;6.33;;;;;;;1.68;78.02;101285.34;1693479;84;21549;-92
2022/02/03 07:36:42;;;;;;;15.15;5.78;;;;;;;1.69;77.92;101277.67;1693292;84;21768;-91
2022/02/03 07:39:08;;;;;;;11.85;4.90;;;;;;;1.73;77.91;101281.38;1693002;84;20996;-92
2022/02/03 07:41:42;;;;;;;9.85;5.33;;;;;;;1.74;77.90;101272.78;1693410;84;21573;-91
2022/02/03 07:44:04;;;;;;;9.53;4.97;;;;;;;1.81;78.00;101276.72;1691816;84;20993;-92
2022/02/03 07:46:31;;;;;;;50.65;24.85;;;;;;;1.89;78.05;101277.72;1693500;84;21008;-91
2022/02/03 07:49:02;;;;;;;19.65;9.95;;;;;;;1.96;77.99;101271.67;1673736;84;20993;-92
2022/02/03 07:51:28;;;;;;;18.55;7.35;;;;;;;2.02;78.00;101269.48;1693416;84;20980;-92
2022/02/03 07:53:55;;;;;;;12.05;6.33;;;;;;;2.09;77.95;101270.40;1693474;84;21501;-93
2022/02/03 07:56:21;;;;;;;11.30;5.87;;;;;;;2.14;77.89;101263.42;1693428;84;20973;-91
2022/02/03 07:58:48;;;;;;;17.37;5.72;;;;;;;2.18;77.84;101260.63;1673542;84;21004;-91
2022/02/03 08:01:15;;;;;;;10.78;5.42;;;;;;;2.20;77.76;101259.44;1693789;84;22595;-92
2022/02/03 08:03:44;;;;;;;7.00;5.00;;;;;;;2.20;77.71;101259.44;1693855;84;21012;-91
2022/02/03 08:06:24;;;;;;;8.98;5.85;;;;;;;2.20;77.66;101265.94;1693954;84;21022;-91
2022/02/03 08:08:48;;;;;;;9.55;5.55;;;;;;;2.23;77.72;101261.81;1692470;84;21036;-91
2022/02/03 08:11:20;;;;;;;11.00;5.12;;;;;;;2.27;77.71;101261.63;1693397;84;21008;-92
2022/02/03 08:16:24;;;;;;;10.98;6.28;;;;;;;2.30;77.70;101265.73;1670260;84;20993;-91
2022/02/03 08:18:51;;;;;;;11.18;7.28;;;;;;;2.37;77.69;101258.85;1692927;84;21008;-91
2022/02/03 08:21:17;;;;;;;11.30;5.67;;;;;;;2.41;77.67;101259.55;1693402;84;21139;-92
2022/02/03 08:26:26;;;;;;;9.80;5.85;;;;;;;2.55;77.57;101262.15;1692889;84;21001;-92
2022/02/03 08:31:11;;;;;;;12.35;6.70;;;;;;;2.66;77.46;101261.15;1693517;83;20985;-92
2022/02/03 08:33:36;;;;;;;8.18;6.47;;;;;;;2.71;77.46;101258.05;1693370;84;21466;-92
2022/02/03 08:36:05;;;;;;;9.73;6.97;;;;;;;2.78;77.39;101268.83;1693785;84;21005;-93
2022/02/03 08:38:46;;;;;;;8.40;6.65;;;;;;;2.81;77.30;101263.84;1693615;84;21831;-92
2022/02/03 08:41:03;;;;;;;9.83;7.00;;;;;;;2.86;77.23;101272.44;1691750;84;21004;-92
2022/02/03 08:43:35;;;;;;;12.35;7.00;;;;;;;2.90;77.14;101267.03;1693652;84;20973;-92
2022/02/03 08:46:03;;;;;;;9.75;7.72;;;;;;;2.94;77.08;101268.13;1692958;84;21008;-90
2022/02/03 08:48:31;;;;;;;14.53;8.70;;;;;;;2.95;77.02;101267.31;1693463;84;20993;-90
2022/02/03 08:50:59;;;;;;;14.63;10.10;;;;;;;2.97;76.98;101273.13;1693519;83;22483;-92
2022/02/03 08:53:34;;;;;;;14.98;10.30;;;;;;;2.99;76.94;101275.84;1679162;85;20988;-92
2022/02/03 08:56:21;;;;;;;15.20;8.48;;;;;;;3.06;76.99;101270.20;1678768;83;21478;-91
2022/02/03 09:37:11;;;;;;;15.38;9.00;;;;;;;3.35;76.01;101236.02;1694302;84;20969;-92
2022/02/03 09:53:52;;;;;;;;;;;;;;;3.13;76.28;101220.78;1667207;85;21020;-92
2022/02/03 09:58:27;;;;;;;47.15;27.05;;;;;;;3.27;76.49;101226.45;1673269;84;21025;-92
2022/02/03 10:01:07;;;;;;;26.73;15.25;;;;;;;3.34;76.56;101224.73;1693504;84;21021;-88
2022/02/03 10:03:50;;;;;;;49.30;26.70;;;;;;;3.48;76.55;101223.84;1692232;84;21060;-87
2022/02/03 10:06:19;;;;;;;24.65;14.45;;;;;;;3.65;76.68;101223.98;1678343;84;21040;-87
2022/02/03 10:08:53;;;;;;;18.82;13.05;;;;;;;3.90;76.66;101222.43;1679447;84;21012;-87
2022/02/03 10:11:24;;;;;;;30.43;17.90;;;;;;;4.12;76.58;101211.57;1694195;84;22665;-87
2022/02/03 10:14:04;;;;;;;36.70;22.02;;;;;;;4.21;76.10;101217.32;1693972;84;21004;-87
2022/02/03 10:16:37;;;;;;;41.92;23.75;;;;;;;4.24;75.94;101223.10;1693755;84;20981;-88
2022/02/03 10:19:12;;;;;;;29.32;16.87;;;;;;;4.28;75.84;101222.09;1693856;84;21008;-87
2022/02/03 10:21:40;;;;;;;27.15;14.28;;;;;;;4.34;75.73;101225.45;1679412;85;21044;-87
2022/02/03 10:24:10;;;;;;;25.77;14.00;;;;;;;4.43;75.87;101222.07;1636130;85;21090;-87
2022/02/03 10:26:45;;;;;;;20.32;12.70;;;;;;;4.55;75.69;101210.13;1679392;84;21108;-87
2022/02/03 10:29:20;;;;;;;20.95;13.85;;;;;;;4.67;75.65;101196.88;1676175;83;21039;-87
2022/02/03 10:31:47;;;;;;;46.60;25.68;;;;;;;4.84;75.71;101195.20;1679254;84;21068;-87
2022/02/03 10:34:21;;;;;;;44.38;26.15;;;;;;;4.93;75.29;101203.95;1681853;85;21140;-87
2022/02/03 10:45:34;;;;;;;19.45;12.20;;;;;;;4.72;74.66;101193.23;1681835;85;21329;-87
2022/02/03 10:56:10;;;;;;;17.15;11.57;;;;;;;4.63;74.78;101177.55;1681605;85;20984;-87
2022/02/03 10:58:51;;;;;;;15.80;10.68;;;;;;;4.69;74.88;101171.78;1678243;85;21028;-89
2022/02/03 11:04:04;;;;;;;18.45;10.53;;;;;;;4.85;74.80;101170.93;1659640;85;21031;-88
2022/02/03 11:09:20;;;;;;;15.05;10.90;;;;;;;5.00;74.74;101168.27;1571331;91;21051;-88
2022/02/03 11:11:50;;;;;;;16.17;10.30;;;;;;;5.16;74.88;101169.97;1681214;85;21012;-88
2022/02/03 11:14:11;;;;;;;16.27;11.78;;;;;;;5.32;74.66;101164.75;1680779;85;20988;-88
2022/02/03 11:16:43;;;;;;;14.93;10.53;;;;;;;5.38;74.40;101162.87;1681716;85;21682;-88
2022/02/03 11:19:12;;;;;;;14.35;10.95;;;;;;;5.49;74.43;101162.14;1680932;85;20996;-89
2022/02/03 11:21:37;;;;;;;15.30;10.05;;;;;;;5.57;74.36;101159.09;1681532;85;20969;-88
2022/02/03 11:24:13;;;;;;;13.95;10.25;;;;;;;5.62;74.14;101152.81;1680934;85;20976;-87
2022/02/03 11:27:31;;;;;;;17.77;11.15;;;;;;;5.62;74.01;101152.39;1680978;85;21508;-87
2022/02/03 11:40:31;;;;;;;16.82;10.13;;;;;;;5.56;73.40;101161.64;1665371;85;21012;-88
2022/02/03 11:46:21;;;;;;;12.78;9.53;;;;;;;5.33;73.44;101158.73;1681912;85;21509;-88
2022/02/03 11:52:40;;;;;;;14.53;9.50;;;;;;;5.27;73.61;101151.86;1704412;83;21101;-89
2022/02/03 11:54:40;;;;;;;14.13;9.85;;;;;;;5.26;73.64;101145.75;1652389;84;20991;-89
2022/02/03 12:05:15;;;;;;;16.82;10.48;;;;;;;5.25;73.56;101153.49;1649811;86;21497;-89
2022/02/03 12:10:50;;;;;;;18.57;11.80;;;;;;;5.15;73.60;101152.53;1650716;87;21749;-89
2022/02/03 12:24:28;;;;;;;18.10;12.70;;;;;;;6.04;74.14;101136.22;1650904;87;21799;-88
2022/02/03 12:27:23;;;;;;;18.17;11.83;;;;;;;6.19;73.91;101136.08;1649914;86;20984;-88
2022/02/03 12:29:29;;;;;;;17.77;12.53;;;;;;;6.30;73.63;101134.00;1637897;86;21693;-90
2022/02/03 12:32:25;;;;;;;19.27;13.22;;;;;;;6.36;73.45;101132.59;1651605;85;21537;-88
2022/02/03 12:40:49;;;;;;;17.12;11.73;;;;;;;6.58;73.05;101140.13;1635688;86;20965;-89
2022/02/03 12:43:14;;;;;;;21.85;11.88;;;;;;;6.54;72.78;101144.32;1630121;86;21068;-88
2022/02/03 12:45:34;;;;;;;16.50;11.60;;;;;;;6.45;72.58;101143.88;1655916;86;20996;-89
2022/02/03 12:48:03;;;;;;;18.35;12.05;;;;;;;6.34;72.49;101145.08;1656020;86;21026;-89
2022/02/03 12:50:36;;;;;;;17.92;13.08;;;;;;;6.27;72.57;101151.75;1655875;86;21917;-89
2022/02/03 12:53:03;;;;;;;392.52;228.42;;;;;;;6.19;72.57;101153.99;1655816;86;21012;-89
2022/02/03 12:55:36;;;;;;;142.15;93.85;;;;;;;6.08;72.49;101154.26;1655990;86;21476;-88
2022/02/03 12:58:16;;;;;;;58.87;39.27;;;;;;;6.00;72.49;101156.49;1663469;83;21490;-88
2022/02/03 13:00:49;;;;;;;55.98;34.30;;;;;;;5.89;72.40;101154.61;1682262;85;21504;-87
2022/02/03 13:03:16;;;;;;;39.63;24.80;;;;;;;5.79;72.54;101150.64;1681773;84;22608;-88
2022/02/03 13:05:56;;;;;;;62.88;33.23;;;;;;;5.76;72.62;101152.20;1681928;84;21000;-87
2022/02/03 13:08:45;;;;;;;41.70;25.82;;;;;;;5.70;72.63;101144.95;1681592;85;21008;-88
2022/02/03 13:11:20;;;;;;;35.88;19.98;;;;;;;5.65;72.76;101148.64;1681625;85;21004;-87
2022/02/03 13:14:00;;;;;;;79.60;47.08;;;;;;;5.61;72.86;101148.01;1681847;85;21040;-88
2022/02/03 13:16:20;;;;;;;39.48;25.52;;;;;;;5.58;72.91;101150.87;1680227;84;22613;-87
2022/02/03 13:19:11;;;;;;;41.80;28.70;;;;;;;5.50;72.83;101143.95;1682034;84;20976;-88
2022/02/03 13:26:55;;;;;;;25.48;17.98;;;;;;;5.36;73.23;101135.80;1682168;85;21008;-88
2022/02/03 13:32:11;;;;;;;28.15;23.38;;;;;;;5.36;73.30;101127.97;1681617;84;21558;-88
2022/02/03 13:34:47;;;;;;;22.20;16.48;;;;;;;5.37;73.40;101134.58;1681982;84;20992;-88
2022/02/03 13:37:21;;;;;;;22.82;15.65;;;;;;;5.42;73.55;101126.58;1680735;83;21277;-88
2022/02/03 13:39:51;;;;;;;22.75;15.03;;;;;;;5.44;73.49;101122.72;1675898;85;21007;-88
2022/02/03 13:42:18;;;;;;;28.70;14.85;;;;;;;5.51;73.62;101123.53;1674898;85;22742;-88
2022/02/03 13:44:47;;;;;;;28.05;16.12;;;;;;;5.51;73.43;101122.22;1682430;85;21036;-88
2022/02/03 13:47:25;;;;;;;24.18;14.75;;;;;;;5.49;73.51;101122.55;1682310;85;21009;-88
2022/02/03 13:50:04;;;;;;;23.98;14.73;;;;;;;5.51;73.57;101122.64;1682037;85;21375;-88
2022/02/03 13:52:40;;;;;;;23.75;15.80;;;;;;;5.47;73.37;101132.03;1682366;85;21016;-88
2022/02/03 14:10:37;;;;;;;35.50;18.02;;;;;;;4.72;73.64;101137.17;1635201;86;21917;-84
2022/02/03 14:16:17;;;;;;;68.15;50.35;;;;;;;4.63;74.17;101140.16;1651969;86;21000;-83
2022/02/03 14:21:34;;;;;;;29.20;19.02;;;;;;;4.58;74.35;101135.09;1651910;86;21897;-83
2022/02/03 14:29:27;;;;;;;43.30;24.37;;;;;;;4.52;74.56;101129.13;1651883;85;20988;-83
2022/02/03 14:31:57;;;;;;;42.73;22.30;;;;;;;4.46;74.66;101128.80;1649956;86;21183;-83
2022/02/03 14:34:24;;;;;;;27.10;18.30;;;;;;;4.41;74.74;101127.25;1682816;83;21529;-84
2022/02/03 14:36:56;;;;;;;31.02;18.60;;;;;;;4.35;74.82;101132.09;1672634;84;22499;-83
2022/02/03 14:39:24;;;;;;;27.13;16.67;;;;;;;4.33;75.00;101133.73;1671921;85;20972;-83
2022/02/03 14:41:48;;;;;;;27.85;17.32;;;;;;;4.32;75.11;101127.12;1663477;85;21060;-83
2022/02/03 14:44:20;;;;;;;29.92;18.27;;;;;;;4.27;75.20;101129.06;1673282;85;21154;-88
2022/02/03 14:46:47;;;;;;;29.37;18.92;;;;;;;4.22;75.15;101126.63;1673526;85;21008;-87
2022/02/03 14:49:14;;;;;;;35.20;21.50;;;;;;;4.12;75.11;101123.41;1673636;85;21787;-85
2022/02/03 14:51:54;;;;;;;37.23;21.60;;;;;;;4.04;75.27;101123.86;1653301;85;21028;-84
2022/02/03 14:58:03;;;;;;;39.08;22.45;;;;;;;3.99;75.40;101121.80;1672673;83;20978;-84
2022/02/03 14:59:33;;;;;;;36.35;22.70;;;;;;;3.84;75.53;101116.61;1673311;85;21027;-83
2022/02/03 15:02:06;;;;;;;41.08;24.30;;;;;;;3.82;75.79;101113.91;1672760;85;21741;-84
2022/02/03 15:04:30;;;;;;;48.87;26.77;;;;;;;3.80;75.94;101106.83;1672535;85;21912;-83
2022/02/03 15:07:00;;;;;;;35.33;22.02;;;;;;;3.79;75.95;101111.53;1673200;85;20980;-83
2022/02/03 15:09:48;;;;;;;34.95;21.50;;;;;;;3.75;76.03;101115.66;1672961;83;21016;-83
2022/02/03 15:12:12;;;;;;;36.70;23.27;;;;;;;3.73;76.09;101111.19;1670702;85;21025;-84
2022/02/03 15:14:34;;;;;;;42.58;23.50;;;;;;;3.69;76.19;101111.41;1672374;85;22891;-84
2022/02/03 15:17:01;;;;;;;47.17;27.35;;;;;;;3.68;76.30;101110.52;1654020;85;21036;-84
2022/02/03 15:19:28;;;;;;;48.63;28.15;;;;;;;3.67;76.41;101111.31;1673330;85;21460;-83
2022/02/03 15:21:55;;;;;;;37.98;24.63;;;;;;;3.66;76.47;101116.04;1673033;85;21027;-84
2022/02/03 15:24:22;;;;;;;39.08;24.75;;;;;;;3.62;76.49;101111.47;1673361;85;20996;-84
2022/02/03 15:26:48;;;;;;;34.10;21.80;;;;;;;3.59;76.60;101105.18;1673325;85;21726;-84
2022/02/03 15:29:18;;;;;;;31.73;19.57;;;;;;;3.57;76.64;101100.30;1653027;85;21450;-84
2022/02/03 15:31:45;;;;;;;29.07;18.27;;;;;;;3.55;76.74;101106.70;1673194;85;21015;-83
2022/02/03 15:34:17;;;;;;;32.93;17.07;;;;;;;3.53;76.80;101101.81;1679327;85;21638;-83
2022/02/03 15:36:47;;;;;;;27.35;17.25;;;;;;;3.50;76.87;101093.81;1686873;84;21007;-83
2022/02/03 15:39:11;;;;;;;32.03;17.48;;;;;;;3.46;76.94;101089.24;1686207;83;21767;-83
2022/02/03 15:41:38;;;;;;;30.68;17.73;;;;;;;3.45;76.97;101084.45;1694145;83;20964;-83
2022/02/03 15:44:05;;;;;;;34.78;17.73;;;;;;;3.39;76.98;101091.88;1699002;83;21051;-83
2022/02/03 15:46:39;;;;;;;30.82;18.15;;;;;;;3.36;77.08;101086.51;1688471;83;21458;-83
2022/02/03 15:49:18;;;;;;;27.70;17.15;;;;;;;3.34;77.18;101079.39;1698556;83;21018;-83
2022/02/03 16:13:26;;;;;;;31.65;19.32;;;;;;;3.60;77.69;101066.20;1721324;82;21023;-83
2022/02/03 16:18:15;;;;;;;31.42;19.35;;;;;;;3.62;77.69;101071.13;1707868;82;21014;-83
2022/02/03 16:20:57;;;;;;;29.82;17.65;;;;;;;3.65;77.72;101071.27;1716488;83;21440;-83
2022/02/03 16:23:40;;;;;;;32.55;17.95;;;;;;;3.65;77.63;101071.69;1721860;82;21474;-83
2022/02/03 16:43:22;;;;;;;32.33;16.37;;;;;;;3.80;77.64;101046.94;1699712;82;21690;-83
2022/02/03 16:52:45;;;;;;;32.58;15.70;;;;;;;3.86;77.60;101034.27;1696240;84;21037;-83
2022/02/03 16:55:16;;;;;;;35.23;15.40;;;;;;;3.84;77.60;101035.47;1696147;83;21038;-83
2022/02/03 16:57:39;;;;;;;29.25;14.60;;;;;;;3.84;77.65;101038.07;1673990;83;22478;-83
2022/02/03 17:00:11;;;;;;;29.02;15.32;;;;;;;3.81;77.55;101046.11;1657928;85;21016;-83
2022/02/03 17:02:35;;;;;;;29.65;14.65;;;;;;;3.76;77.60;101032.84;1685576;82;21034;-82
2022/02/03 17:05:02;;;;;;;28.92;14.65;;;;;;;3.76;77.70;101020.24;1691156;84;21031;-82
2022/02/03 17:07:28;;;;;;;32.98;15.28;;;;;;;3.75;77.67;101027.55;1691301;84;21504;-83
2022/02/03 17:09:56;;;;;;;30.45;15.30;;;;;;;3.73;77.70;101021.36;1705456;84;22511;-83
2022/02/03 17:12:23;;;;;;;35.90;15.48;;;;;;;3.71;77.72;101025.17;1706096;84;21870;-83
2022/02/03 17:14:49;;;;;;;32.93;16.77;;;;;;;3.73;77.92;101022.25;1706189;84;21003;-83
2022/02/03 17:17:19;;;;;;;32.38;16.85;;;;;;;3.76;77.84;101025.45;1705772;82;20979;-83
2022/02/03 17:19:45;;;;;;;27.45;16.32;;;;;;;3.76;77.79;101026.75;1706279;82;20975;-83
2022/02/03 17:22:13;;;;;;;30.08;17.12;;;;;;;3.77;77.79;101027.23;1706521;84;22436;-83
2022/02/03 17:24:47;;;;;;;32.58;17.48;;;;;;;3.75;77.82;101027.55;1706152;84;20979;-83
2022/02/03 17:27:11;;;;;;;28.20;16.17;;;;;;;3.75;77.78;101024.53;1705536;83;21619;-83
2022/02/03 17:44:53;;;;;;;29.75;15.28;;;;;;;3.75;77.85;101021.04;1706838;82;21489;-88
2022/02/03 18:05:08;;;;;;;38.28;18.98;;;;;;;3.66;78.06;100981.97;1713184;82;20968;-93
2022/02/03 18:10:01;;;;;;;33.83;18.32;;;;;;;3.67;78.40;100978.95;1714835;83;21016;-93
2022/02/03 18:29:32;;;;;;;35.60;19.40;;;;;;;3.54;78.61;100966.95;1680778;83;21919;-93
2022/02/03 18:36:46;;;;;;;42.20;21.05;;;;;;;3.48;78.73;100963.59;1725790;83;20987;-88
2022/02/03 18:50:21;;;;;;;46.05;21.90;;;;;;;3.40;78.77;100973.98;1706746;83;21024;-94
2022/02/03 18:58:30;;;;;;;43.58;21.27;;;;;;;3.38;78.93;100956.47;1674287;85;21604;-94
2022/02/03 19:09:39;;;;;;;41.92;20.37;;;;;;;3.43;79.05;100945.52;1674709;85;21698;-94
2022/02/03 19:25:04;;;;;;;40.65;20.05;;;;;;;3.46;79.31;100936.59;1673203;85;21085;-83
2022/02/03 20:01:05;;;;;;;40.10;21.82;;;;;;;3.50;79.55;100916.84;1656390;86;21066;-86
2022/02/03 20:05:18;;;;;;;43.25;22.52;;;;;;;3.49;79.55;100909.83;1706993;83;20992;-83
2022/02/03 20:07:46;;;;;;;47.73;22.75;;;;;;;3.49;79.59;100908.53;1646740;86;21067;-82
2022/02/03 20:12:42;;;;;;;37.93;20.45;;;;;;;3.52;79.64;100901.31;1649588;87;21121;-83
2022/02/03 20:15:10;;;;;;;37.50;19.80;;;;;;;3.49;79.64;100899.03;1649771;85;22550;-84
2022/02/03 20:17:37;;;;;;;48.92;22.65;;;;;;;3.48;79.67;100893.74;1649767;86;20980;-83
2022/02/03 20:20:04;;;;;;;46.55;22.48;;;;;;;3.47;79.69;100891.94;1649494;85;21032;-80
2022/02/03 20:22:37;;;;;;;44.90;23.32;;;;;;;3.45;79.75;100888.35;1649529;86;21151;-80
2022/02/03 20:25:02;;;;;;;41.42;22.58;;;;;;;3.45;79.83;100886.67;1658012;84;21498;-83
2022/02/03 20:27:31;;;;;;;43.78;21.75;;;;;;;3.45;79.85;100878.87;1677800;84;21959;-83
2022/02/03 20:29:57;;;;;;;41.77;22.20;;;;;;;3.45;79.92;100873.66;1636637;85;21021;-82
2022/02/03 20:32:28;;;;;;;45.43;23.95;;;;;;;3.45;79.86;100874.04;1651848;86;21505;-82
2022/02/03 20:34:53;;;;;;;45.92;24.15;;;;;;;3.45;79.94;100872.73;1655085;86;20980;-82
2022/02/03 20:37:20;;;;;;;58.68;28.23;;;;;;;3.44;79.90;100866.65;1659266;86;20984;-82
2022/02/03 20:39:47;;;;;;;56.68;28.25;;;;;;;3.41;79.88;100859.08;1659276;86;21764;-82
2022/02/03 20:42:16;;;;;;;65.32;30.30;;;;;;;3.40;79.94;100857.30;1659046;86;21442;-82
2022/02/03 20:44:44;;;;;;;63.08;31.50;;;;;;;3.40;79.97;100855.59;1659282;86;20988;-82
2022/02/03 20:47:11;;;;;;;60.55;28.23;;;;;;;3.40;80.04;100847.78;1637427;86;21007;-82
2022/02/03 20:49:41;;;;;;;59.23;28.60;;;;;;;3.41;80.14;100846.06;1659104;86;21027;-83
2022/02/03 20:52:08;;;;;;;59.95;28.25;;;;;;;3.43;80.16;100842.72;1659004;86;21834;-83
2022/02/03 20:54:34;;;;;;;63.75;27.75;;;;;;;3.44;80.23;100834.53;1663365;85;21140;-82
2022/02/03 20:57:01;;;;;;;45.60;25.02;;;;;;;3.45;80.22;100828.50;1662156;85;21037;-82
2022/02/03 20:59:53;;;;;;;50.25;25.40;;;;;;;3.43;80.18;100824.92;1670603;85;21101;-82
2022/02/03 21:02:03;;;;;;;62.80;29.52;;;;;;;3.43;80.27;100819.30;1660218;84;21011;-82
2022/02/03 21:04:57;;;;;;;68.67;31.20;;;;;;;3.45;80.34;100815.49;1631825;87;21936;-83
2022/02/03 21:06:57;;;;;;;70.32;36.50;;;;;;;3.46;80.33;100812.09;1628877;87;21003;-83
2022/02/03 21:09:25;;;;;;;76.30;36.20;;;;;;;3.48;80.40;100816.97;1632201;87;21002;-83
2022/02/03 21:11:52;;;;;;;71.87;34.58;;;;;;;3.47;80.35;100809.96;1632085;87;21035;-82
2022/02/03 21:14:18;;;;;;;74.20;35.95;;;;;;;3.44;80.30;100815.02;1632085;87;21043;-82
2022/02/03 21:16:50;;;;;;;67.00;33.95;;;;;;;3.42;80.33;100814.93;1632525;85;21765;-81
2022/02/03 21:19:13;;;;;;;71.72;35.43;;;;;;;3.39;80.34;100810.84;1660419;85;21076;-82
2022/02/03 21:21:40;;;;;;;71.22;35.83;;;;;;;3.38;80.39;100806.86;1676996;85;20977;-83
2022/02/03 21:24:07;;;;;;;75.08;35.90;;;;;;;3.38;80.43;100801.27;1661018;85;21019;-82
2022/02/03 21:26:38;;;;;;;80.10;37.63;;;;;;;3.40;80.53;100801.36;1657958;86;21065;-82